Time;durP1;ratioP1;P1;durP2;ratioP2;P2;SDS_P1;SDS_P2;PMS_P1;PMS_P2;Temp;Humidity;BMP_temperature;BMP_pressure;BME280_temperature;BME280_humidity;BME280_pressure;Samples;Min_cycle;Max_cycle;Signal;HPM_P1;HPM_P2
2022/11/27 00:02:12;;;;;;;27.92;13.20;;;;;;;18.24;48.95;102484.91;5024573;28;20077;-54
2022/11/27 00:04:37;;;;;;;27.98;14.50;;;;;;;18.24;49.12;102478.66;5024010;28;20022;-55
2022/11/27 00:07:02;;;;;;;23.33;13.65;;;;;;;18.11;49.21;102457.28;5024824;28;20029;-54
2022/11/27 00:09:27;;;;;;;23.92;13.48;;;;;;;18.22;48.82;102483.31;5024778;28;20069;-54
2022/11/27 00:11:53;;;;;;;25.55;13.38;;;;;;;18.21;48.89;102478.91;5024276;28;20037;-56
2022/11/27 00:14:18;;;;;;;25.08;12.90;;;;;;;18.21;49.00;102477.06;5024663;28;20029;-54
2022/11/27 00:16:43;;;;;;;24.40;13.65;;;;;;;18.18;49.08;102468.38;5024429;28;20030;-56
2022/11/27 00:19:09;;;;;;;28.17;14.82;;;;;;;18.13;48.94;102460.69;5024932;28;20053;-55
2022/11/27 00:21:35;;;;;;;26.17;14.27;;;;;;;18.19;49.05;102470.97;5024032;28;20026;-55
2022/11/27 00:24:02;;;;;;;23.70;12.68;;;;;;;18.18;48.86;102471.06;5023126;28;20726;-56
2022/11/27 00:26:28;;;;;;;20.98;12.82;;;;;;;18.16;49.05;102465.84;5023899;28;20041;-51
2022/11/27 00:28:53;;;;;;;21.42;12.52;;;;;;;18.17;48.94;102469.38;5025118;28;20029;-54
2022/11/27 00:31:28;;;;;;;20.17;11.35;;;;;;;18.14;49.15;102462.44;5028323;28;20546;-54
2022/11/27 00:33:54;;;;;;;22.52;11.85;;;;;;;18.14;49.19;102462.44;5028833;28;20045;-56
2022/11/27 00:36:19;;;;;;;18.88;11.60;;;;;;;18.14;49.01;102465.13;5028285;28;20057;-56
2022/11/27 00:38:45;;;;;;;22.35;12.15;;;;;;;18.13;48.94;102460.69;5028296;28;20085;-56
2022/11/27 00:41:16;;;;;;;21.95;11.15;;;;;;;18.12;49.18;102445.53;5028208;28;20017;-58
2022/11/27 00:43:42;;;;;;;19.65;10.77;;;;;;;18.12;49.30;102450.91;5028147;28;20022;-56
2022/11/27 00:46:07;;;;;;;24.42;11.98;;;;;;;18.11;48.85;102442.97;5028026;28;20034;-56
2022/11/27 00:48:33;;;;;;;17.48;11.30;;;;;;;18.10;48.83;102444.81;5028288;28;20081;-56
2022/11/27 00:51:00;;;;;;;21.10;11.23;;;;;;;18.09;48.83;102439.53;5028067;28;20390;-58
2022/11/27 00:53:25;;;;;;;21.05;11.32;;;;;;;17.97;48.94;102414.50;5028163;28;20026;-58
2022/11/27 00:55:50;;;;;;;16.58;10.32;;;;;;;18.09;49.01;102428.78;5028014;28;20014;-57
2022/11/27 00:58:15;;;;;;;19.27;10.18;;;;;;;18.07;49.45;102420.84;5027734;28;20030;-58
2022/11/27 01:00:41;;;;;;;16.90;10.20;;;;;;;18.08;48.82;102419.00;5028022;28;20089;-58
2022/11/27 01:03:06;;;;;;;19.45;10.68;;;;;;;18.06;48.82;102426.34;5027778;28;20042;-56
2022/11/27 01:05:35;;;;;;;18.60;10.90;;;;;;;18.01;48.84;102415.97;5027245;28;20034;-57
2022/11/27 01:08:00;;;;;;;;;;;;;;;18.06;48.80;102431.75;5028465;28;20034;-53
2022/11/27 01:10:25;;;;;;;24.25;10.55;;;;;;;18.01;48.71;102423.16;5010448;28;19956;-56
2022/11/27 01:12:50;;;;;;;19.33;9.52;;;;;;;18.02;49.12;102433.81;5027765;28;20471;-57
2022/11/27 01:15:16;;;;;;;20.20;10.05;;;;;;;18.01;49.05;102421.34;5027634;28;20061;-53
2022/11/27 01:17:41;;;;;;;16.55;9.85;;;;;;;18.01;49.04;102429.44;5027603;28;20030;-55
2022/11/27 01:20:07;;;;;;;19.60;10.20;;;;;;;17.99;48.77;102418.75;5027332;28;20120;-55
2022/11/27 01:22:32;;;;;;;15.98;9.05;;;;;;;17.98;49.04;102422.44;5027227;28;20025;-53
2022/11/27 01:24:57;;;;;;;18.40;9.95;;;;;;;17.99;48.97;102423.28;5027189;28;20058;-56
2022/11/27 01:27:22;;;;;;;19.80;10.13;;;;;;;17.98;48.90;102416.22;5027495;28;20053;-58
2022/11/27 01:29:47;;;;;;;18.05;10.63;;;;;;;17.97;48.66;102415.34;5027482;28;20101;-57
2022/11/27 01:32:13;;;;;;;16.88;8.73;;;;;;;17.96;48.88;102405.56;5027166;28;20037;-57
2022/11/27 01:34:38;;;;;;;16.42;8.77;;;;;;;17.95;48.92;102403.84;5025749;28;20025;-54
2022/11/27 01:37:03;;;;;;;20.05;10.23;;;;;;;17.95;48.69;102401.16;5027068;28;20033;-53
2022/11/27 01:39:28;;;;;;;14.48;8.85;;;;;;;17.94;48.86;102402.16;5027360;28;20137;-56
2022/11/27 01:41:54;;;;;;;16.30;8.80;;;;;;;17.94;48.90;102396.75;5026603;28;20037;-53
2022/11/27 01:44:22;;;;;;;15.00;8.95;;;;;;;17.94;48.90;102393.22;5027240;28;20026;-56
2022/11/27 01:46:57;;;;;;;15.63;7.95;;;;;;;17.92;48.83;102393.31;5026857;28;20030;-53
2022/11/27 01:49:43;;;;;;;15.85;8.68;;;;;;;17.91;48.72;102397.00;5009636;28;20034;-57
2022/11/27 01:52:19;;;;;;;13.02;8.52;;;;;;;17.91;48.91;102390.78;5008947;28;20034;-56
2022/11/27 01:55:19;;;;;;;15.30;8.23;;;;;;;17.90;48.73;102392.63;5027025;28;20151;-58
2022/11/27 01:57:50;;;;;;;15.93;8.55;;;;;;;17.90;48.73;102389.94;4996450;28;20034;-57
2022/11/27 02:00:17;;;;;;;14.60;8.30;;;;;;;17.89;48.54;102396.28;5026935;28;20040;-57
2022/11/27 02:02:43;;;;;;;12.35;7.45;;;;;;;17.87;48.32;102384.78;5026543;28;20088;-57
2022/11/27 02:05:10;;;;;;;14.23;8.82;;;;;;;17.86;48.55;102377.69;5026294;28;20108;-57
2022/11/27 02:07:36;;;;;;;14.00;7.97;;;;;;;17.80;48.65;102366.56;5026678;28;20494;-57
2022/11/27 02:10:02;;;;;;;11.70;7.43;;;;;;;17.85;48.60;102365.25;5026691;28;20077;-56
2022/11/27 02:12:38;;;;;;;12.40;7.63;;;;;;;17.73;48.55;102328.56;5026581;28;20033;-56
2022/11/27 02:15:07;;;;;;;15.35;7.75;;;;;;;17.84;48.70;102333.06;5009570;28;20018;-56
2022/11/27 02:18:04;;;;;;;13.82;7.88;;;;;;;17.83;48.93;102329.53;5026350;28;20045;-56
2022/11/27 02:21:12;;;;;;;13.43;7.57;;;;;;;17.83;48.57;102325.97;4965511;29;20050;-55
2022/11/27 02:23:59;;;;;;;14.77;7.90;;;;;;;17.82;48.61;102325.13;4946246;29;20046;-56
2022/11/27 02:26:49;;;;;;;11.85;7.25;;;;;;;17.81;48.75;102323.44;4965179;29;20058;-56
2022/11/27 02:29:18;;;;;;;12.32;7.32;;;;;;;17.81;48.78;102326.13;4965462;29;20094;-55
2022/11/27 02:31:57;;;;;;;12.93;7.40;;;;;;;17.80;48.63;102320.84;4964897;29;20043;-52
2022/11/27 02:34:27;;;;;;;10.55;6.75;;;;;;;17.72;48.74;102299.94;4965152;28;20028;-56
2022/11/27 02:37:04;;;;;;;14.50;7.72;;;;;;;17.79;48.50;102308.38;4964931;29;20132;-55
2022/11/27 02:39:35;;;;;;;11.82;7.30;;;;;;;17.77;48.70;102304.97;4964749;29;20127;-54
2022/11/27 02:42:06;;;;;;;11.50;7.13;;;;;;;17.77;48.74;102300.44;4951676;28;20038;-54
2022/11/27 02:44:34;;;;;;;11.80;7.10;;;;;;;17.77;48.54;102297.75;4966209;28;20047;-55
2022/11/27 02:47:00;;;;;;;12.60;6.88;;;;;;;17.76;48.59;102292.50;4945392;29;20074;-54
2022/11/27 02:49:25;;;;;;;9.75;6.30;;;;;;;17.75;48.66;102294.31;4945713;29;20039;-53
2022/11/27 02:51:54;;;;;;;12.02;6.55;;;;;;;17.74;48.34;102292.63;4963701;28;20031;-56
2022/11/27 02:54:22;;;;;;;;;;;;;;;17.76;48.79;102281.75;4945560;29;20027;-54
2022/11/27 02:56:49;;;;;;;11.27;6.47;;;;;;;17.74;48.60;102280.03;4992226;28;19917;-56
2022/11/27 02:59:15;;;;;;;12.75;6.30;;;;;;;17.74;48.70;102296.16;5025412;28;20061;-54
2022/11/27 03:01:47;;;;;;;10.43;6.88;;;;;;;17.72;48.74;102294.56;5007585;28;20025;-54
2022/11/27 03:04:16;;;;;;;10.55;6.60;;;;;;;17.72;48.62;102294.56;5007839;28;20026;-53
2022/11/27 03:06:45;;;;;;;10.18;6.43;;;;;;;17.70;48.48;102297.38;5025054;28;20053;-57
2022/11/27 03:09:18;;;;;;;8.95;4.90;;;;;;;17.62;48.73;102286.38;5016954;28;20060;-55
2022/11/27 03:11:44;;;;;;;10.50;7.00;;;;;;;17.70;48.52;102302.75;5007516;28;20022;-55
2022/11/27 03:14:09;;;;;;;9.68;5.80;;;;;;;17.68;48.75;102280.50;5025119;28;20029;-55
2022/11/27 03:16:53;;;;;;;10.95;6.30;;;;;;;17.69;48.50;102286.75;5007473;28;20021;-56
2022/11/27 03:19:25;;;;;;;10.52;6.40;;;;;;;17.64;48.43;102272.81;5025074;28;20129;-55
2022/11/27 03:21:53;;;;;;;9.98;6.18;;;;;;;17.53;48.42;102256.72;5006916;28;20037;-54
2022/11/27 03:24:18;;;;;;;11.93;6.07;;;;;;;17.65;48.61;102267.31;5024721;28;20030;-53
2022/11/27 03:26:44;;;;;;;9.43;6.47;;;;;;;17.68;48.39;102271.59;5007215;28;20042;-56
2022/11/27 03:29:13;;;;;;;11.40;6.15;;;;;;;17.67;48.65;102270.75;5007116;28;20061;-53
2022/11/27 03:31:38;;;;;;;;;;;;;;;17.67;48.52;102273.44;5007543;28;20076;-56
2022/11/27 03:34:04;;;;;;;8.80;5.75;;;;;;;17.67;48.58;102270.75;5024795;28;20259;-54
2022/11/27 03:36:29;;;;;;;8.90;5.57;;;;;;;17.66;48.18;102268.16;5006486;28;20037;-52
2022/11/27 03:38:54;;;;;;;9.93;5.38;;;;;;;17.56;48.65;102251.09;5024961;28;20034;-53
2022/11/27 03:41:49;;;;;;;9.02;5.55;;;;;;;17.64;48.56;102256.69;5007085;28;20038;-54
2022/11/27 03:44:37;;;;;;;9.60;5.03;;;;;;;17.63;48.50;102257.69;5003493;28;20033;-56
2022/11/27 03:47:15;;;;;;;7.40;5.30;;;;;;;17.63;48.42;102261.22;5024319;28;20093;-53
2022/11/27 03:50:17;;;;;;;8.13;5.05;;;;;;;17.61;48.61;102257.78;5024110;28;20072;-55
2022/11/27 03:52:55;;;;;;;8.80;5.05;;;;;;;17.61;48.43;102255.09;5024452;28;20052;-53
2022/11/27 03:55:35;;;;;;;10.88;5.78;;;;;;;17.60;48.39;102255.25;5024616;28;20030;-54
2022/11/27 03:58:05;;;;;;;8.70;5.13;;;;;;;17.54;48.42;102236.91;5024602;28;20025;-54
2022/11/27 04:00:34;;;;;;;8.07;5.03;;;;;;;17.51;48.58;102227.28;5007167;28;20026;-54
2022/11/27 04:03:01;;;;;;;7.93;4.93;;;;;;;17.60;48.35;102244.47;5006748;28;20135;-54
2022/11/27 04:05:26;;;;;;;7.72;5.03;;;;;;;17.46;48.46;102216.06;5027600;28;20036;-53
2022/11/27 04:07:51;;;;;;;8.80;4.80;;;;;;;17.57;48.69;102232.13;5028448;28;20049;-56
2022/11/27 04:10:16;;;;;;;7.75;4.95;;;;;;;17.58;48.65;102233.81;5028527;28;20129;-54
2022/11/27 04:12:42;;;;;;;9.20;5.10;;;;;;;17.58;48.37;102230.28;5028490;28;20022;-54
2022/11/27 04:15:07;;;;;;;8.55;4.55;;;;;;;17.58;48.58;102238.34;5028659;28;20029;-55
2022/11/27 04:17:33;;;;;;;6.82;4.45;;;;;;;17.57;48.31;102234.81;5028259;28;20049;-56
2022/11/27 04:19:58;;;;;;;6.75;4.50;;;;;;;17.57;48.49;102236.66;5028026;28;20482;-56
2022/11/27 04:22:23;;;;;;;8.35;5.10;;;;;;;17.57;48.87;102231.28;5028525;28;20080;-54
2022/11/27 04:24:49;;;;;;;10.32;5.45;;;;;;;17.54;48.42;102239.59;5027978;28;20057;-56
2022/11/27 04:27:14;;;;;;;7.25;4.47;;;;;;;17.56;48.25;102226.88;5028117;28;20048;-57
2022/11/27 04:29:39;;;;;;;8.07;4.55;;;;;;;17.56;48.27;102225.06;5028009;28;20032;-56
2022/11/27 04:32:05;;;;;;;8.52;4.50;;;;;;;17.56;48.31;102232.25;5028120;28;20030;-54
2022/11/27 04:34:31;;;;;;;6.13;4.25;;;;;;;17.57;48.33;102225.91;5028000;28;20495;-54
2022/11/27 04:36:56;;;;;;;6.90;4.13;;;;;;;17.52;48.37;102228.13;5027931;28;20442;-55
2022/11/27 04:39:21;;;;;;;8.50;4.60;;;;;;;17.55;48.60;102227.88;5027846;28;20093;-52
2022/11/27 04:41:47;;;;;;;5.78;3.97;;;;;;;17.56;48.28;102237.66;5028001;28;20048;-55
2022/11/27 04:44:13;;;;;;;7.82;4.22;;;;;;;17.55;48.45;102241.31;5027827;28;20029;-56
2022/11/27 04:46:38;;;;;;;6.45;4.28;;;;;;;17.55;48.44;102239.47;5027579;28;20106;-57
2022/11/27 04:49:03;;;;;;;9.23;4.43;;;;;;;17.56;48.13;102245.72;5027613;28;20030;-53
2022/11/27 04:51:29;;;;;;;7.68;4.15;;;;;;;17.55;48.42;102244.88;5027396;28;20026;-55
2022/11/27 04:53:54;;;;;;;8.07;4.32;;;;;;;17.55;48.20;102244.88;5027805;28;20029;-54
2022/11/27 04:56:20;;;;;;;6.90;4.25;;;;;;;17.56;48.33;102243.03;5027674;28;20061;-56
2022/11/27 04:58:45;;;;;;;6.43;3.72;;;;;;;17.55;48.38;102244.88;5027549;28;20038;-55
2022/11/27 05:01:10;;;;;;;6.82;3.88;;;;;;;17.53;48.29;102238.75;5027766;28;20056;-58
2022/11/27 05:03:35;;;;;;;6.20;3.65;;;;;;;17.55;48.18;102231.41;5027510;28;20422;-54
2022/11/27 05:06:01;;;;;;;7.68;4.78;;;;;;;17.50;48.18;102217.50;5027344;28;20022;-56
2022/11/27 05:08:28;;;;;;;7.35;3.83;;;;;;;17.52;48.29;102198.53;5027302;28;20604;-56
2022/11/27 05:11:16;;;;;;;6.88;3.80;;;;;;;17.55;48.14;102199.16;5027393;28;20038;-56
2022/11/27 05:13:42;;;;;;;5.95;3.60;;;;;;;17.54;48.24;102194.72;5027222;28;20033;-53
2022/11/27 05:16:09;;;;;;;5.60;3.65;;;;;;;17.55;48.09;102198.28;5026116;28;20022;-57
2022/11/27 05:18:34;;;;;;;5.57;3.70;;;;;;;17.54;48.54;102194.72;5027064;28;20032;-56
2022/11/27 05:21:02;;;;;;;4.90;3.35;;;;;;;17.55;48.13;102203.69;5026952;28;20089;-56
2022/11/27 05:23:28;;;;;;;6.72;3.53;;;;;;;17.55;48.38;102195.59;5027113;28;20574;-57
2022/11/27 05:25:53;;;;;;;5.38;3.58;;;;;;;17.43;48.22;102167.91;5026707;28;20042;-56
2022/11/27 05:28:19;;;;;;;6.70;4.25;;;;;;;17.53;48.05;102195.72;5026856;28;20036;-56
2022/11/27 05:30:45;;;;;;;6.97;3.70;;;;;;;17.55;48.07;102195.59;5027110;28;20613;-56
2022/11/27 05:33:11;;;;;;;5.97;3.83;;;;;;;17.47;48.30;102174.72;5026840;28;20025;-57
2022/11/27 05:35:36;;;;;;;6.57;3.70;;;;;;;17.47;48.13;102169.34;5026697;28;20093;-55
2022/11/27 05:38:01;;;;;;;6.68;3.30;;;;;;;17.53;48.29;102174.19;5026868;28;20026;-55
2022/11/27 05:40:26;;;;;;;4.22;2.92;;;;;;;17.54;48.18;102183.13;5027051;28;20064;-57
2022/11/27 05:42:52;;;;;;;5.32;3.42;;;;;;;17.49;48.01;102167.38;5026602;28;20038;-57
2022/11/27 05:45:17;;;;;;;6.72;3.30;;;;;;;17.55;48.22;102172.25;5026760;28;20026;-57
2022/11/27 05:47:42;;;;;;;5.07;3.33;;;;;;;17.54;48.01;102165.16;5026400;28;20444;-56
2022/11/27 05:50:08;;;;;;;6.60;3.80;;;;;;;17.51;48.13;102168.13;5026405;28;20026;-55
2022/11/27 05:52:33;;;;;;;4.93;3.47;;;;;;;17.56;48.00;102165.03;5026864;28;20060;-56
2022/11/27 05:54:58;;;;;;;6.30;3.83;;;;;;;17.57;48.18;102172.13;5025147;28;20083;-56
2022/11/27 05:57:24;;;;;;;4.72;3.15;;;;;;;17.56;48.18;102160.50;5026679;28;20033;-54
2022/11/27 05:59:49;;;;;;;5.07;3.42;;;;;;;17.58;48.01;102165.75;5025617;28;20032;-51
2022/11/27 06:02:14;;;;;;;5.38;2.97;;;;;;;17.58;48.26;102165.75;5026369;28;20378;-57
2022/11/27 06:04:40;;;;;;;4.70;3.55;;;;;;;17.51;48.18;102148.44;5026299;28;20053;-57
2022/11/27 06:07:06;;;;;;;5.13;3.78;;;;;;;17.59;47.93;102167.47;5022794;28;20376;-56
2022/11/27 06:09:31;;;;;;;6.85;3.13;;;;;;;17.54;48.19;102159.78;5026141;28;20025;-56
2022/11/27 06:11:56;;;;;;;5.13;3.83;;;;;;;17.61;48.16;102171.72;5025824;28;20053;-53
2022/11/27 06:14:22;;;;;;;5.35;2.88;;;;;;;17.61;48.08;102165.50;5024660;28;20026;-56
2022/11/27 06:16:47;;;;;;;6.10;2.92;;;;;;;17.61;48.02;102170.88;5029861;28;20030;-53
2022/11/27 06:19:12;;;;;;;4.70;3.20;;;;;;;17.59;47.98;102162.09;5026129;28;20053;-54
2022/11/27 06:21:38;;;;;;;4.78;2.80;;;;;;;17.63;48.15;102163.56;5025924;28;20394;-54
2022/11/27 06:24:03;;;;;;;5.05;3.42;;;;;;;17.63;48.24;102160.84;5025482;28;20161;-56
2022/11/27 06:26:30;;;;;;;5.60;2.97;;;;;;;17.61;48.11;102160.13;5025473;28;20049;-55
2022/11/27 06:28:57;;;;;;;3.25;2.58;;;;;;;17.63;47.88;102150.09;5008072;28;20153;-55
2022/11/27 06:31:25;;;;;;;4.25;3.05;;;;;;;17.63;47.74;102140.19;5025858;28;20038;-55
2022/11/27 06:33:52;;;;;;;5.72;2.92;;;;;;;17.64;47.94;102139.19;5025754;28;20033;-56
2022/11/27 06:36:18;;;;;;;6.22;3.50;;;;;;;17.57;47.69;102124.56;5007248;28;20034;-57
2022/11/27 06:38:44;;;;;;;3.53;2.83;;;;;;;17.56;47.96;102125.56;5025901;28;20029;-55
2022/11/27 06:41:15;;;;;;;5.95;3.33;;;;;;;17.65;48.02;102140.91;5025640;28;20088;-56
2022/11/27 06:43:40;;;;;;;3.80;2.60;;;;;;;17.66;47.67;102134.53;5025856;28;20033;-55
2022/11/27 06:46:08;;;;;;;5.68;2.75;;;;;;;17.65;47.75;102135.53;5025257;28;20038;-57
2022/11/27 06:48:33;;;;;;;5.55;3.13;;;;;;;17.62;47.82;102122.31;5007812;28;20030;-56
2022/11/27 06:51:01;;;;;;;5.55;2.92;;;;;;;17.41;47.63;102083.81;5025439;28;20036;-55
2022/11/27 06:53:27;;;;;;;6.18;2.58;;;;;;;17.68;47.81;102123.66;5024869;28;20029;-55
2022/11/27 06:55:52;;;;;;;5.30;2.70;;;;;;;17.68;47.54;102123.66;5025438;28;20032;-56
2022/11/27 06:58:18;;;;;;;5.20;2.80;;;;;;;17.68;47.58;102121.81;5025234;28;20034;-55
2022/11/27 07:00:43;;;;;;;4.68;2.78;;;;;;;17.70;47.64;102124.38;5025365;28;20029;-56
2022/11/27 07:03:08;;;;;;;5.25;2.50;;;;;;;17.69;47.89;102118.13;5025021;28;20093;-57
2022/11/27 07:05:34;;;;;;;4.47;2.35;;;;;;;17.69;47.73;102123.50;5024871;28;20033;-55
2022/11/27 07:07:59;;;;;;;4.25;2.80;;;;;;;17.70;47.68;102117.16;5007706;28;20038;-54
2022/11/27 07:10:25;;;;;;;6.47;3.90;;;;;;;17.69;47.82;102112.75;5023964;28;20439;-50
2022/11/27 07:12:50;;;;;;;4.93;2.92;;;;;;;17.71;47.61;102124.25;5024402;28;20033;-56
2022/11/27 07:15:15;;;;;;;5.95;2.63;;;;;;;17.74;48.41;102133.91;5024360;28;20057;-55
2022/11/27 07:17:40;;;;;;;5.35;3.70;;;;;;;17.74;48.55;102137.44;5024269;28;20032;-57
2022/11/27 07:20:06;;;;;;;4.32;2.65;;;;;;;17.77;48.48;102136.34;5024191;28;20444;-54
2022/11/27 07:22:31;;;;;;;5.53;3.25;;;;;;;17.79;48.34;102129.00;5023937;28;20021;-54
2022/11/27 07:24:57;;;;;;;5.43;2.90;;;;;;;17.81;48.24;102126.19;5024291;28;20026;-55
2022/11/27 07:27:22;;;;;;;4.82;2.50;;;;;;;17.76;48.38;102123.03;5024578;28;20061;-55
2022/11/27 07:29:48;;;;;;;4.70;2.85;;;;;;;17.83;48.27;102116.97;5024198;28;20084;-55
2022/11/27 07:32:13;;;;;;;4.70;2.83;;;;;;;17.83;48.54;102097.28;5023884;28;20030;-55
2022/11/27 07:34:38;;;;;;;5.65;2.85;;;;;;;17.85;48.59;102095.34;5024372;28;20037;-56
2022/11/27 07:37:03;;;;;;;4.05;2.60;;;;;;;17.86;48.58;102084.44;5024245;28;20030;-57
2022/11/27 07:39:28;;;;;;;6.95;3.08;;;;;;;17.86;48.47;102084.44;5023683;28;20029;-54
2022/11/27 07:41:54;;;;;;;5.20;3.15;;;;;;;17.83;48.60;102071.25;5024294;28;20034;-53
2022/11/27 07:44:19;;;;;;;4.50;2.78;;;;;;;17.88;48.42;102086.97;5023990;28;20021;-54
2022/11/27 07:46:44;;;;;;;3.85;2.45;;;;;;;17.89;48.51;102086.03;5023801;28;20034;-58
2022/11/27 07:49:09;;;;;;;3.80;2.70;;;;;;;17.60;48.55;102053.53;5020601;28;20444;-53
2022/11/27 07:51:35;;;;;;;3.92;2.70;;;;;;;17.87;48.01;102075.38;5023957;28;20029;-57
2022/11/27 07:54:00;;;;;;;5.47;2.78;;;;;;;17.91;48.65;102078.66;5024180;28;20026;-55
2022/11/27 07:56:26;;;;;;;50.10;24.23;;;;;;;17.72;48.66;102031.81;5023937;28;20032;-57
2022/11/27 07:58:52;;;;;;;41.33;18.63;;;;;;;17.92;48.56;102056.97;5024042;28;20026;-55
2022/11/27 08:01:18;;;;;;;38.58;17.63;;;;;;;17.93;48.50;102060.56;5024080;28;20026;-58
2022/11/27 08:03:44;;;;;;;36.08;16.63;;;;;;;17.93;48.40;102055.19;5023741;28;20046;-60
2022/11/27 08:06:17;;;;;;;39.92;17.50;;;;;;;17.94;48.56;102046.97;5021236;28;20018;-58
2022/11/27 08:08:42;;;;;;;32.53;15.45;;;;;;;17.96;48.48;102046.81;5022128;28;20057;-58
2022/11/27 08:11:16;;;;;;;34.35;15.27;;;;;;;17.94;48.62;102030.81;5014805;28;20026;-59
2022/11/27 08:13:42;;;;;;;33.47;15.75;;;;;;;17.98;48.68;102034.94;5013875;28;20065;-59
2022/11/27 08:16:07;;;;;;;33.25;14.68;;;;;;;17.94;48.49;102025.44;5014895;28;20034;-58
2022/11/27 08:18:33;;;;;;;29.92;14.15;;;;;;;17.99;48.38;102033.94;5020228;28;20034;-58
2022/11/27 08:21:01;;;;;;;32.00;15.15;;;;;;;17.97;48.58;102027.84;5012828;28;20030;-57
2022/11/27 08:23:26;;;;;;;37.17;15.75;;;;;;;18.02;48.46;102040.06;5018018;28;20057;-62
2022/11/27 08:25:52;;;;;;;28.80;13.75;;;;;;;18.01;48.53;102036.53;5024176;28;20042;-58
2022/11/27 08:28:17;;;;;;;26.58;13.30;;;;;;;18.02;48.37;102029.28;5021698;28;20061;-57
2022/11/27 08:30:42;;;;;;;32.60;15.57;;;;;;;18.04;48.58;102038.06;5012888;28;20029;-57
2022/11/27 08:33:09;;;;;;;27.75;14.13;;;;;;;18.03;48.68;102031.84;5013294;28;20032;-55
2022/11/27 08:35:34;;;;;;;29.90;14.20;;;;;;;18.01;48.49;102036.53;5024603;28;20025;-56
2022/11/27 08:37:59;;;;;;;32.00;14.07;;;;;;;17.94;48.77;102017.34;5024448;28;20021;-55
2022/11/27 08:40:25;;;;;;;31.05;14.05;;;;;;;17.98;48.90;102020.63;5024524;28;20109;-57
2022/11/27 08:42:50;;;;;;;26.75;12.68;;;;;;;17.97;48.66;102029.69;5024528;28;20022;-56
2022/11/27 08:45:15;;;;;;;27.92;14.18;;;;;;;17.97;48.72;102027.84;5024200;28;20026;-54
2022/11/27 08:47:42;;;;;;;25.70;13.38;;;;;;;17.97;49.00;102021.63;5024735;28;20029;-57
2022/11/27 08:50:07;;;;;;;24.23;13.00;;;;;;;18.00;49.09;102034.78;5017773;28;20030;-58
2022/11/27 08:52:33;;;;;;;25.23;12.68;;;;;;;18.02;48.85;102037.38;5010314;28;20045;-58
2022/11/27 08:54:58;;;;;;;26.38;12.68;;;;;;;18.02;48.97;102037.38;5008937;28;20030;-57
2022/11/27 08:57:24;;;;;;;26.88;12.95;;;;;;;18.03;48.91;102039.91;5017033;28;20033;-59
2022/11/27 08:59:49;;;;;;;22.45;11.00;;;;;;;18.05;49.00;102045.16;5019444;28;20045;-55
2022/11/27 09:02:14;;;;;;;24.17;11.63;;;;;;;18.10;49.00;102037.53;5023302;28;20034;-60
2022/11/27 09:04:39;;;;;;;24.80;10.95;;;;;;;18.11;48.75;102036.56;5025594;28;20038;-58
2022/11/27 09:07:05;;;;;;;22.95;11.73;;;;;;;18.11;48.80;102032.00;5018733;28;20092;-58
2022/11/27 09:09:30;;;;;;;23.30;11.40;;;;;;;18.13;49.18;102026.47;5027076;28;20042;-58
2022/11/27 09:11:55;;;;;;;23.58;12.32;;;;;;;18.14;49.06;102023.69;5010977;28;20022;-60
2022/11/27 09:14:20;;;;;;;22.02;10.57;;;;;;;18.13;49.23;102021.94;5026462;28;20021;-59
2022/11/27 09:16:46;;;;;;;24.23;12.00;;;;;;;18.14;49.17;102031.75;5026150;28;20081;-59
2022/11/27 09:19:11;;;;;;;22.05;11.25;;;;;;;18.17;48.95;102027.91;5026854;28;20029;-59
2022/11/27 09:21:37;;;;;;;23.75;11.15;;;;;;;18.17;49.24;102027.91;5024474;28;20067;-59
2022/11/27 09:24:03;;;;;;;21.45;10.95;;;;;;;18.18;48.87;102035.88;5025662;28;20052;-59
2022/11/27 09:26:29;;;;;;;24.05;10.88;;;;;;;18.21;48.91;102032.03;5025675;28;20105;-58
2022/11/27 09:28:55;;;;;;;22.35;11.18;;;;;;;18.22;49.15;102025.66;5024907;28;20026;-59
2022/11/27 09:31:21;;;;;;;19.65;10.45;;;;;;;18.22;48.78;102028.34;5024811;28;20022;-58
2022/11/27 09:33:47;;;;;;;18.02;9.88;;;;;;;18.23;49.04;102019.31;5025836;28;20042;-59
2022/11/27 09:36:22;;;;;;;19.88;10.55;;;;;;;18.32;48.45;102015.78;5024584;28;20018;-59
2022/11/27 09:38:47;;;;;;;18.92;9.45;;;;;;;18.34;48.27;102015.63;5025100;28;20550;-60
2022/11/27 09:41:41;;;;;;;20.30;10.18;;;;;;;18.34;48.29;102010.25;5024726;28;20049;-60
2022/11/27 09:44:21;;;;;;;17.38;9.30;;;;;;;18.33;48.43;102009.41;5026121;28;20021;-59
2022/11/27 09:46:48;;;;;;;18.08;9.00;;;;;;;18.34;48.45;102018.34;5025673;28;20030;-59
2022/11/27 09:49:18;;;;;;;15.95;8.85;;;;;;;18.35;48.58;102025.41;5024322;28;20036;-59
2022/11/27 09:51:52;;;;;;;16.15;8.90;;;;;;;18.31;48.80;102011.41;5024094;28;20025;-60
2022/11/27 09:54:31;;;;;;;17.85;9.27;;;;;;;18.33;48.91;102012.09;5003129;28;20018;-59
2022/11/27 09:56:56;;;;;;;;;;;;;;;18.35;48.81;102009.25;5000241;28;20093;-59
2022/11/27 09:59:28;;;;;;;17.00;9.20;;;;;;;18.35;48.77;102007.44;5025566;28;19929;-60
2022/11/27 10:01:54;;;;;;;17.50;8.98;;;;;;;18.37;48.77;102004.59;5005847;28;20034;-59
2022/11/27 10:04:20;;;;;;;15.15;8.60;;;;;;;18.35;48.94;102004.75;5022886;28;20061;-59
2022/11/27 10:07:16;;;;;;;18.88;9.23;;;;;;;18.36;48.96;101998.38;5021538;28;20030;-60
2022/11/27 10:10:00;;;;;;;17.35;9.68;;;;;;;18.13;48.72;101943.03;4999466;28;20057;-60
2022/11/27 10:12:31;;;;;;;17.95;9.45;;;;;;;18.40;48.86;101991.72;5020148;28;20026;-60
2022/11/27 10:15:02;;;;;;;17.58;8.88;;;;;;;18.14;48.83;101958.22;5023093;28;20038;-60
2022/11/27 10:17:36;;;;;;;15.95;8.13;;;;;;;18.40;48.68;101982.78;5024731;28;20044;-58
2022/11/27 10:20:27;;;;;;;16.05;8.70;;;;;;;18.41;48.63;101979.94;5007311;28;20489;-60
2022/11/27 10:23:17;;;;;;;15.25;8.55;;;;;;;18.48;48.92;101985.66;5012792;28;20052;-60
2022/11/27 10:25:49;;;;;;;16.60;8.65;;;;;;;18.49;48.88;101974.72;5024998;28;20042;-60
2022/11/27 10:28:36;;;;;;;11.18;7.05;;;;;;;18.51;48.88;101979.09;5024246;28;20023;-59
2022/11/27 10:31:07;;;;;;;17.55;8.15;;;;;;;18.51;48.74;101981.78;5022993;28;20064;-60
2022/11/27 10:33:48;;;;;;;14.85;7.65;;;;;;;18.49;48.75;101973.88;5003002;28;20067;-60
2022/11/27 10:36:17;;;;;;;15.77;7.57;;;;;;;18.51;48.66;101974.56;5002321;28;20097;-59
2022/11/27 10:38:43;;;;;;;14.27;8.00;;;;;;;18.50;48.65;101972.88;5020068;28;20030;-59
2022/11/27 10:41:16;;;;;;;15.20;7.47;;;;;;;18.49;48.48;101969.34;5023314;28;20382;-57
2022/11/27 10:43:42;;;;;;;13.10;7.10;;;;;;;18.51;48.64;101961.09;5006384;28;20018;-60
2022/11/27 10:46:12;;;;;;;13.73;7.10;;;;;;;18.48;48.53;101964.94;5022960;28;20064;-59
2022/11/27 10:48:38;;;;;;;10.52;7.03;;;;;;;18.50;48.39;101956.72;5005119;28;20133;-60
2022/11/27 10:51:20;;;;;;;12.23;6.93;;;;;;;18.51;48.20;101947.63;5017658;28;20034;-60
2022/11/27 10:53:47;;;;;;;13.35;7.13;;;;;;;18.51;47.90;101939.56;5004793;28;20112;-60
2022/11/27 10:56:31;;;;;;;13.55;7.97;;;;;;;18.52;47.99;101946.66;5020497;28;20109;-60
2022/11/27 10:59:03;;;;;;;10.63;6.00;;;;;;;18.49;47.94;101928.09;5021212;28;20030;-59
2022/11/27 11:01:49;;;;;;;12.82;7.55;;;;;;;18.51;47.92;101939.56;5017913;28;20037;-61
2022/11/27 11:04:19;;;;;;;11.13;7.10;;;;;;;18.53;48.20;101942.13;5003760;28;20037;-60
2022/11/27 11:06:47;;;;;;;13.43;6.78;;;;;;;18.53;48.06;101939.44;5018714;28;20026;-60
2022/11/27 11:09:27;;;;;;;12.35;6.68;;;;;;;18.52;47.98;101919.75;5019662;28;20030;-60
2022/11/27 11:11:52;;;;;;;9.70;6.10;;;;;;;18.31;48.11;101897.44;5025117;28;20042;-61
2022/11/27 11:14:25;;;;;;;12.95;7.00;;;;;;;18.51;48.30;101922.56;5018700;28;20056;-60
2022/11/27 11:16:54;;;;;;;13.18;7.07;;;;;;;18.51;48.21;101909.94;5024143;28;20029;-61
2022/11/27 11:19:34;;;;;;;13.85;6.47;;;;;;;18.49;48.11;101906.53;5022883;28;20053;-59
2022/11/27 11:22:03;;;;;;;13.70;7.63;;;;;;;18.49;48.35;101893.09;5016265;28;20044;-59
2022/11/27 11:24:32;;;;;;;;;;;;;;;18.51;48.00;101896.47;5007083;28;20025;-58
2022/11/27 11:27:00;;;;;;;10.85;6.38;;;;;;;18.53;48.02;101881.03;5006727;28;19917;-58